createdAt,value
2023-03-15T00:00:59.728Z,100.00
2023-03-15T00:03:27.959Z,100.00
2023-03-15T00:05:54.761Z,97.80
2023-03-15T00:08:21.772Z,100.00
2023-03-15T00:10:48.886Z,100.00
2023-03-15T00:13:16.820Z,100.00
2023-03-15T00:15:48.480Z,100.00
2023-03-15T00:18:16.649Z,100.00
2023-03-15T00:20:45.457Z,100.00
2023-03-15T00:23:12.246Z,100.00
2023-03-15T00:25:39.575Z,100.00
2023-03-15T00:28:06.751Z,100.00
2023-03-15T00:30:33.512Z,100.00
2023-03-15T00:33:00.264Z,100.00
2023-03-15T00:35:27.491Z,100.00
2023-03-15T00:37:56.832Z,100.00
2023-03-15T00:40:23.875Z,100.00
2023-03-15T00:42:51.233Z,100.00
2023-03-15T00:45:18.540Z,99.91
2023-03-15T00:47:45.419Z,100.00
2023-03-15T00:50:12.223Z,100.00
2023-03-15T00:52:39.203Z,98.77
2023-03-15T00:55:10.845Z,95.28
2023-03-15T00:57:37.775Z,96.93
2023-03-15T01:00:05.423Z,98.14
2023-03-15T01:02:32.211Z,100.00
2023-03-15T01:04:59.429Z,100.00
2023-03-15T01:07:26.195Z,100.00
2023-03-15T01:09:52.938Z,99.45
2023-03-15T01:12:21.151Z,100.00
2023-03-15T01:14:47.872Z,92.12
2023-03-15T01:17:14.737Z,97.25
2023-03-15T01:19:41.664Z,93.02
2023-03-15T01:22:08.371Z,95.90
2023-03-15T01:24:35.136Z,97.85
2023-03-15T01:27:01.895Z,94.29
2023-03-15T01:29:30.080Z,89.86
2023-03-15T01:31:56.918Z,96.03
2023-03-15T01:34:23.659Z,96.09
2023-03-15T01:36:50.663Z,93.36
2023-03-15T01:39:17.377Z,92.00
2023-03-15T01:41:44.126Z,81.73
2023-03-15T01:44:13.707Z,90.07
2023-03-15T01:46:42.096Z,90.71
2023-03-15T01:49:13.040Z,90.73
2023-03-15T01:51:44.995Z,87.10
2023-03-15T01:54:19.215Z,87.09
2023-03-15T01:56:47.553Z,91.98
2023-03-15T01:59:21.034Z,89.19
2023-03-15T02:01:49.887Z,93.05
2023-03-15T02:04:21.141Z,84.96
2023-03-15T02:06:48.463Z,90.01
2023-03-15T02:09:18.474Z,96.23
2023-03-15T02:11:45.368Z,88.37
2023-03-15T02:14:13.328Z,90.20
2023-03-15T02:16:40.230Z,93.93
2023-03-15T02:19:20.362Z,96.47
2023-03-15T02:21:56.482Z,91.36
2023-03-15T02:24:31.318Z,92.56
2023-03-15T02:26:58.258Z,93.28
2023-03-15T02:29:28.539Z,77.00
2023-03-15T02:31:56.334Z,86.07
2023-03-15T02:34:23.258Z,85.52
2023-03-15T02:36:49.964Z,88.26
2023-03-15T02:39:18.608Z,79.55
2023-03-15T02:41:49.632Z,80.19
2023-03-15T02:44:21.485Z,79.39
2023-03-15T02:46:52.516Z,87.40
2023-03-15T02:49:23.606Z,82.04
2023-03-15T02:51:50.335Z,81.03
2023-03-15T02:54:17.158Z,84.51
2023-03-15T02:56:43.961Z,89.91
2023-03-15T02:59:10.712Z,81.32
2023-03-15T03:01:37.583Z,82.66
2023-03-15T03:04:05.981Z,84.17
2023-03-15T03:06:32.760Z,86.40
2023-03-15T03:08:59.541Z,85.24
2023-03-15T03:11:26.334Z,87.90
2023-03-15T03:13:53.171Z,92.31
2023-03-15T03:16:19.918Z,94.90
2023-03-15T03:18:46.747Z,86.37
2023-03-15T03:21:14.982Z,85.35
2023-03-15T03:23:41.772Z,93.59
2023-03-15T03:26:14.391Z,96.10
2023-03-15T03:28:41.100Z,96.82
2023-03-15T03:31:16.569Z,97.29
2023-03-15T03:33:43.453Z,77.18
2023-03-15T03:36:10.341Z,81.80
2023-03-15T03:38:39.409Z,78.87
2023-03-15T03:41:06.124Z,83.88
2023-03-15T03:43:32.847Z,84.64
2023-03-15T03:45:59.704Z,75.68
2023-03-15T03:48:26.615Z,77.62
2023-03-15T03:50:53.339Z,84.83
2023-03-15T03:53:20.253Z,73.90
2023-03-15T03:55:48.501Z,75.47
2023-03-15T03:58:15.293Z,79.75
2023-03-15T04:00:42.218Z,75.22
2023-03-15T04:03:09.305Z,74.67
2023-03-15T04:05:36.215Z,80.79
2023-03-15T04:08:03.331Z,78.89
2023-03-15T04:10:30.057Z,83.95
2023-03-15T04:12:58.203Z,85.36
2023-03-15T04:15:25.049Z,87.81
2023-03-15T04:17:52.616Z,93.57
2023-03-15T04:20:19.475Z,86.97
2023-03-15T04:22:46.269Z,81.66
2023-03-15T04:25:12.971Z,75.96
2023-03-15T04:27:39.714Z,79.87
2023-03-15T04:30:09.677Z,83.83
2023-03-15T04:32:36.510Z,84.87
2023-03-15T04:35:04.209Z,86.89
2023-03-15T04:37:31.285Z,85.55
2023-03-15T04:39:58.150Z,79.79
2023-03-15T04:42:24.907Z,80.55
2023-03-15T04:44:51.848Z,85.57
2023-03-15T04:47:19.971Z,79.78
2023-03-15T04:49:46.729Z,86.81
2023-03-15T04:52:13.439Z,84.62
2023-03-15T04:54:40.246Z,82.10
2023-03-15T04:57:07.125Z,85.87
2023-03-15T04:59:33.932Z,87.60
2023-03-15T05:02:02.810Z,84.24
2023-03-15T05:04:31.978Z,89.06
2023-03-15T05:06:58.720Z,92.79
2023-03-15T05:09:25.485Z,93.03
2023-03-15T05:11:52.214Z,91.40
2023-03-15T05:14:18.987Z,95.70
2023-03-15T05:16:45.793Z,92.88
2023-03-15T05:19:12.562Z,95.86
2023-03-15T05:21:40.767Z,97.36
2023-03-15T05:24:07.727Z,98.13
2023-03-15T05:26:34.582Z,89.55
2023-03-15T05:29:01.341Z,95.87
2023-03-15T05:31:28.208Z,93.29
2023-03-15T05:33:55.069Z,83.48
2023-03-15T05:36:21.819Z,91.15
2023-03-15T05:38:50.011Z,99.31
2023-03-15T05:41:16.860Z,96.18
2023-03-15T05:43:43.727Z,88.97
2023-03-15T05:46:10.553Z,92.52
2023-03-15T05:48:37.321Z,90.71
2023-03-15T05:51:04.136Z,93.22
2023-03-15T05:53:30.967Z,94.46
2023-03-15T05:55:59.316Z,86.25
2023-03-15T05:58:26.077Z,85.06
2023-03-15T06:00:52.792Z,89.88
2023-03-15T06:03:19.612Z,87.91
2023-03-15T06:05:46.438Z,92.48
2023-03-15T06:08:13.313Z,92.52
2023-03-15T06:10:40.053Z,92.40
2023-03-15T06:13:08.249Z,92.40
2023-03-15T06:15:35.083Z,92.35
2023-03-15T06:18:01.897Z,91.04
2023-03-15T06:20:29.700Z,90.38
2023-03-15T06:22:56.504Z,90.13
2023-03-15T06:25:23.619Z,92.12
2023-03-15T06:27:50.516Z,91.58
2023-03-15T06:30:19.080Z,90.71
2023-03-15T06:32:45.905Z,89.97
2023-03-15T06:35:12.729Z,90.84
2023-03-15T06:37:39.510Z,86.48
2023-03-15T06:40:08.187Z,88.92
2023-03-15T06:42:35.879Z,90.87
2023-03-15T06:45:02.752Z,85.62
2023-03-15T06:47:31.035Z,84.04
2023-03-15T06:49:57.870Z,90.11
2023-03-15T06:52:26.213Z,93.36
2023-03-15T06:54:53.082Z,94.18
2023-03-15T06:57:19.927Z,87.84
2023-03-15T06:59:46.651Z,79.15
2023-03-15T07:02:15.192Z,75.41
2023-03-15T07:04:44.657Z,80.18
2023-03-15T07:07:11.887Z,81.47
2023-03-15T07:09:38.996Z,82.15
2023-03-15T07:12:06.490Z,81.32
2023-03-15T07:14:33.841Z,81.19
2023-03-15T07:17:00.726Z,78.14
2023-03-15T07:19:27.818Z,77.59
2023-03-15T07:21:55.931Z,77.38
2023-03-15T07:24:22.668Z,73.31
2023-03-15T07:26:49.598Z,73.32
2023-03-15T07:29:16.330Z,71.83
2023-03-15T07:31:43.084Z,73.06
2023-03-15T07:34:09.925Z,65.14
2023-03-15T07:36:37.185Z,60.58
2023-03-15T07:39:05.452Z,58.90
2023-03-15T07:41:32.238Z,61.94
2023-03-15T07:43:59.020Z,64.93
2023-03-15T07:46:25.873Z,54.77
2023-03-15T07:48:52.709Z,46.84
2023-03-15T07:51:19.616Z,47.04
2023-03-15T07:53:46.362Z,54.77
2023-03-15T07:56:14.563Z,52.50
2023-03-15T07:58:41.293Z,50.47
2023-03-15T08:01:09.140Z,50.11
2023-03-15T08:03:36.052Z,47.59
2023-03-15T08:06:03.034Z,41.52
2023-03-15T08:08:29.851Z,44.63
2023-03-15T08:10:56.707Z,45.85
2023-03-15T08:13:25.077Z,45.89
2023-03-15T08:15:52.253Z,44.22
2023-03-15T08:18:19.240Z,44.91
2023-03-15T08:20:46.074Z,44.38
2023-03-15T08:23:12.925Z,43.86
2023-03-15T08:25:39.748Z,41.15
2023-03-15T08:28:06.628Z,43.06
2023-03-15T08:30:35.074Z,46.59
2023-03-15T08:33:02.040Z,46.56
2023-03-15T08:35:29.032Z,40.76
2023-03-15T08:37:55.871Z,42.17
2023-03-15T08:40:22.806Z,42.07
2023-03-15T08:42:53.120Z,42.56
2023-03-15T08:45:20.474Z,42.36
2023-03-15T08:47:49.640Z,43.29
2023-03-15T08:50:17.388Z,45.70
2023-03-15T08:52:44.331Z,44.86
2023-03-15T08:55:11.389Z,47.96
2023-03-15T08:57:38.403Z,48.89
2023-03-15T09:00:06.350Z,51.15
2023-03-15T09:02:33.270Z,50.10
2023-03-15T09:05:01.688Z,48.37
2023-03-15T09:07:28.609Z,48.22
2023-03-15T09:09:55.629Z,47.92
2023-03-15T09:12:22.669Z,46.44
2023-03-15T09:14:49.611Z,52.18
2023-03-15T09:17:16.492Z,49.31
2023-03-15T09:19:43.641Z,46.88
2023-03-15T09:22:17.121Z,47.87
2023-03-15T09:24:51.740Z,46.63
2023-03-15T09:27:18.812Z,45.73
2023-03-15T09:29:45.851Z,48.06
2023-03-15T09:32:12.733Z,45.27
2023-03-15T09:34:41.972Z,45.43
2023-03-15T09:37:11.156Z,40.65
2023-03-15T09:39:38.079Z,39.25
2023-03-15T09:42:14.863Z,41.06
2023-03-15T09:44:47.239Z,44.36
2023-03-15T09:47:31.559Z,45.37
2023-03-15T09:50:04.795Z,42.23
2023-03-15T09:52:40.163Z,41.83
2023-03-15T09:55:12.703Z,41.88
2023-03-15T09:57:44.417Z,45.85
2023-03-15T10:00:14.708Z,37.46
2023-03-15T10:02:47.827Z,37.60
2023-03-15T10:05:18.507Z,41.72
2023-03-15T10:07:47.067Z,36.00
2023-03-15T10:10:18.984Z,42.46
2023-03-15T10:12:52.015Z,36.80
2023-03-15T10:15:35.818Z,44.45
2023-03-15T10:18:22.286Z,38.99
2023-03-15T10:20:58.804Z,39.28
2023-03-15T10:23:38.008Z,38.10
2023-03-15T10:26:10.072Z,40.54
2023-03-15T10:28:37.866Z,37.12
2023-03-15T10:31:22.265Z,34.86
2023-03-15T10:33:57.254Z,35.39
2023-03-15T10:36:25.651Z,35.26
2023-03-15T10:38:53.852Z,34.68
2023-03-15T10:41:38.075Z,37.25
2023-03-15T10:44:07.705Z,39.97
2023-03-15T10:46:34.640Z,36.56
2023-03-15T10:49:10.311Z,37.82
2023-03-15T10:51:39.968Z,36.54
2023-03-15T10:54:13.362Z,33.27
2023-03-15T10:56:46.291Z,30.82
2023-03-15T10:59:16.861Z,35.75
2023-03-15T11:01:47.286Z,34.69
2023-03-15T11:04:17.536Z,32.93
2023-03-15T11:06:47.750Z,33.42
2023-03-15T11:09:17.832Z,32.26
2023-03-15T11:11:57.895Z,32.14
2023-03-15T11:14:25.237Z,34.81
2023-03-15T11:16:55.052Z,34.78
2023-03-15T11:19:25.664Z,36.44
2023-03-15T11:21:52.899Z,34.52
2023-03-15T11:24:25.236Z,30.54
2023-03-15T11:26:54.401Z,34.09
2023-03-15T11:29:24.865Z,35.42
2023-03-15T11:31:52.637Z,33.85
2023-03-15T11:34:27.358Z,32.80
2023-03-15T11:37:07.906Z,36.36
2023-03-15T11:39:43.715Z,36.88
2023-03-15T11:42:16.279Z,33.97
2023-03-15T11:44:46.509Z,36.19
2023-03-15T11:47:20.857Z,34.71
2023-03-15T11:49:51.331Z,36.17
2023-03-15T11:52:20.858Z,36.17
2023-03-15T11:54:49.952Z,35.56
2023-03-15T11:57:36.923Z,32.74
2023-03-15T12:00:26.637Z,36.29
2023-03-15T12:02:55.946Z,34.33
2023-03-15T12:05:42.995Z,33.12
2023-03-15T12:08:22.710Z,32.63
2023-03-15T12:10:51.747Z,31.12
2023-03-15T12:13:22.881Z,33.76
2023-03-15T12:15:50.294Z,33.00
2023-03-15T12:18:21.184Z,30.56
2023-03-15T12:20:57.826Z,31.09
2023-03-15T12:23:40.123Z,34.70
2023-03-15T12:26:14.171Z,30.41
2023-03-15T12:28:49.728Z,34.23
2023-03-15T12:31:17.022Z,33.60
2023-03-15T12:33:46.901Z,29.71
2023-03-15T12:36:21.266Z,30.72
2023-03-15T12:38:59.272Z,32.12
2023-03-15T12:41:39.886Z,31.18
2023-03-15T12:44:24.477Z,27.41
2023-03-15T12:46:54.817Z,32.90
2023-03-15T12:49:34.554Z,29.81
2023-03-15T12:52:03.356Z,30.35
2023-03-15T12:54:37.291Z,30.32
2023-03-15T12:57:06.406Z,30.60
2023-03-15T12:59:44.967Z,31.47
2023-03-15T13:02:35.897Z,29.08
2023-03-15T13:05:18.606Z,30.22
2023-03-15T13:07:56.859Z,31.02
2023-03-15T13:10:59.937Z,27.77
2023-03-15T13:14:05.432Z,30.81
2023-03-15T13:16:41.713Z,31.21
2023-03-15T13:19:18.904Z,31.08
2023-03-15T13:22:12.372Z,29.32
2023-03-15T13:24:48.254Z,28.89
2023-03-15T13:27:29.425Z,30.57
2023-03-15T13:29:57.962Z,30.10
2023-03-15T13:32:25.033Z,28.36
2023-03-15T13:34:52.038Z,27.99
2023-03-15T13:37:22.548Z,29.34
2023-03-15T13:39:55.610Z,29.60
2023-03-15T13:42:24.162Z,28.18
2023-03-15T13:45:22.442Z,28.50
2023-03-15T13:47:49.299Z,29.14
2023-03-15T13:50:18.365Z,31.15
2023-03-15T13:52:46.184Z,28.59
2023-03-15T13:55:14.995Z,31.19
2023-03-15T13:57:42.400Z,28.61
2023-03-15T14:00:13.670Z,27.84
2023-03-15T14:02:48.633Z,29.37
2023-03-15T14:05:18.817Z,28.43
2023-03-15T14:07:48.451Z,30.08
2023-03-15T14:10:27.927Z,29.10
2023-03-15T14:12:56.115Z,30.04
2023-03-15T14:15:26.239Z,27.42
2023-03-15T14:18:01.133Z,27.44
2023-03-15T14:20:30.947Z,28.91
2023-03-15T14:23:00.604Z,30.30
2023-03-15T14:25:27.816Z,28.41
2023-03-15T14:27:55.169Z,29.96
2023-03-15T14:30:24.394Z,30.37
2023-03-15T14:32:54.096Z,28.77
2023-03-15T14:35:25.901Z,29.95
2023-03-15T14:38:04.494Z,30.17
2023-03-15T14:40:33.346Z,30.14
2023-03-15T14:43:00.945Z,30.12
2023-03-15T14:45:28.200Z,30.61
2023-03-15T14:47:58.243Z,29.48
2023-03-15T14:50:28.685Z,30.21
2023-03-15T14:52:58.266Z,29.60
2023-03-15T14:55:29.312Z,31.14
2023-03-15T14:57:57.006Z,31.23
2023-03-15T15:00:24.530Z,28.19
2023-03-15T15:02:54.135Z,30.63
2023-03-15T15:05:24.813Z,30.10
2023-03-15T15:07:58.008Z,30.29
2023-03-15T15:10:25.741Z,27.86
2023-03-15T15:13:04.874Z,28.55
2023-03-15T15:15:43.903Z,26.69
2023-03-15T15:18:18.818Z,28.68
2023-03-15T15:20:45.917Z,28.96
2023-03-15T15:23:20.572Z,28.33
2023-03-15T15:25:48.086Z,29.08
2023-03-15T15:28:23.920Z,29.50
2023-03-15T15:30:59.901Z,29.12
2023-03-15T15:33:26.807Z,29.08
2023-03-15T15:35:55.674Z,31.32
2023-03-15T15:38:29.082Z,32.18
2023-03-15T15:40:55.809Z,30.92
2023-03-15T15:43:22.600Z,30.03
2023-03-15T15:45:49.456Z,30.32
2023-03-15T15:48:16.328Z,30.13
2023-03-15T15:50:43.486Z,29.94
2023-03-15T15:53:15.653Z,31.68
2023-03-15T15:55:44.041Z,32.51
2023-03-15T15:58:12.501Z,31.35
2023-03-15T16:00:39.626Z,32.05
2023-03-15T16:03:12.241Z,32.19
2023-03-15T16:05:39.160Z,31.67
2023-03-15T16:08:06.666Z,32.53
2023-03-15T16:10:33.684Z,30.97
2023-03-15T16:13:03.363Z,33.32
2023-03-15T16:15:30.458Z,33.43
2023-03-15T16:17:57.266Z,32.87
2023-03-15T16:20:24.061Z,34.37
2023-03-15T16:22:56.238Z,33.80
2023-03-15T16:25:28.215Z,34.96
2023-03-15T16:27:56.213Z,34.71
2023-03-15T16:30:26.543Z,33.92
2023-03-15T16:32:53.696Z,34.94
2023-03-15T16:35:22.446Z,35.80
2023-03-15T16:37:52.407Z,35.74
2023-03-15T16:40:23.201Z,36.25
2023-03-15T16:42:50.170Z,36.24
2023-03-15T16:45:18.583Z,36.96
2023-03-15T16:47:46.773Z,35.25
2023-03-15T16:50:13.561Z,39.20
2023-03-15T16:52:41.567Z,36.25
2023-03-15T16:55:10.682Z,36.41
2023-03-15T16:57:38.720Z,37.08
2023-03-15T17:00:06.725Z,37.96
2023-03-15T17:02:33.612Z,40.07
2023-03-15T17:05:01.740Z,36.94
2023-03-15T17:07:31.473Z,38.43
2023-03-15T17:10:00.301Z,40.72
2023-03-15T17:12:28.700Z,40.51
2023-03-15T17:14:58.228Z,37.42
2023-03-15T17:17:27.129Z,38.40
2023-03-15T17:19:54.399Z,38.45
2023-03-15T17:22:23.016Z,35.63
2023-03-15T17:24:51.189Z,36.20
2023-03-15T17:27:23.141Z,37.01
2023-03-15T17:29:51.664Z,35.93
2023-03-15T17:32:25.752Z,38.45
2023-03-15T17:35:02.373Z,35.84
2023-03-15T17:38:02.515Z,37.43
2023-03-15T17:40:49.883Z,39.77
2023-03-15T17:43:18.965Z,40.16
2023-03-15T17:45:46.799Z,41.08
2023-03-15T17:48:14.673Z,39.32
2023-03-15T17:50:44.594Z,40.11
2023-03-15T17:53:16.089Z,41.14
2023-03-15T17:55:43.445Z,42.17
2023-03-15T17:58:12.228Z,42.29
2023-03-15T18:00:39.319Z,41.94
2023-03-15T18:03:12.253Z,40.23
2023-03-15T18:05:39.196Z,42.69
2023-03-15T18:08:06.163Z,46.79
2023-03-15T18:10:36.370Z,39.08
2023-03-15T18:13:03.206Z,40.36
2023-03-15T18:15:30.254Z,44.27
2023-03-15T18:17:57.028Z,42.70
2023-03-15T18:20:23.822Z,41.76
2023-03-15T18:22:50.962Z,43.89
2023-03-15T18:25:20.064Z,43.24
2023-03-15T18:27:49.176Z,41.06
2023-03-15T18:30:18.518Z,47.64
2023-03-15T18:32:45.649Z,46.10
2023-03-15T18:35:16.041Z,45.20
2023-03-15T18:37:42.925Z,44.75
2023-03-15T18:40:11.820Z,42.89
2023-03-15T18:42:38.629Z,40.38
2023-03-15T18:45:10.581Z,44.24
2023-03-15T18:47:37.283Z,47.13
2023-03-15T18:50:10.364Z,45.27
2023-03-15T18:52:37.641Z,46.20
2023-03-15T18:55:05.472Z,45.54
2023-03-15T18:57:32.200Z,43.88
2023-03-15T18:59:58.956Z,45.01
2023-03-15T19:02:27.489Z,45.95
2023-03-15T19:04:57.445Z,47.21
2023-03-15T19:07:24.266Z,46.55
2023-03-15T19:09:50.988Z,43.72
2023-03-15T19:12:17.728Z,45.23
2023-03-15T19:14:44.552Z,44.98
2023-03-15T19:17:11.344Z,44.40
2023-03-15T19:19:39.610Z,44.33
2023-03-15T19:22:06.439Z,43.71
2023-03-15T19:24:33.951Z,43.82
2023-03-15T19:27:00.775Z,50.14
2023-03-15T19:29:27.592Z,48.48
2023-03-15T19:31:54.421Z,49.54
2023-03-15T19:34:21.294Z,47.50
2023-03-15T19:36:49.451Z,47.49
2023-03-15T19:39:16.288Z,46.40
2023-03-15T19:41:43.398Z,44.49
2023-03-15T19:44:10.191Z,45.72
2023-03-15T19:46:37.214Z,46.47
2023-03-15T19:49:04.007Z,49.12
2023-03-15T19:51:31.028Z,49.96
2023-03-15T19:53:59.216Z,46.88
2023-03-15T19:56:26.030Z,51.54
2023-03-15T19:58:52.833Z,50.16
2023-03-15T20:01:19.582Z,50.66
2023-03-15T20:03:47.149Z,48.77
2023-03-15T20:06:14.332Z,50.37
2023-03-15T20:08:42.002Z,47.90
2023-03-15T20:11:10.258Z,50.92
2023-03-15T20:13:37.769Z,51.84
2023-03-15T20:16:05.303Z,51.34
2023-03-15T20:18:32.307Z,51.73
2023-03-15T20:20:59.040Z,54.06
2023-03-15T20:23:25.763Z,55.02
2023-03-15T20:26:03.500Z,59.73
2023-03-15T20:28:31.713Z,53.28
2023-03-15T20:30:58.611Z,54.88
2023-03-15T20:33:25.388Z,55.73
2023-03-15T20:35:52.606Z,55.02
2023-03-15T20:38:19.433Z,52.28
2023-03-15T20:40:46.224Z,51.29
2023-03-15T20:43:13.050Z,54.16
2023-03-15T20:45:41.214Z,52.05
2023-03-15T20:48:08.019Z,54.77
2023-03-15T20:50:34.758Z,54.70
2023-03-15T20:53:01.483Z,54.68
2023-03-15T20:55:28.281Z,53.12
2023-03-15T20:57:54.986Z,50.89
2023-03-15T21:00:22.600Z,55.76
2023-03-15T21:02:50.889Z,59.41
2023-03-15T21:05:17.675Z,55.62
2023-03-15T21:07:44.494Z,54.52
2023-03-15T21:10:12.662Z,55.86
2023-03-15T21:12:39.499Z,55.30
2023-03-15T21:15:07.315Z,56.08
2023-03-15T21:17:34.061Z,56.85
2023-03-15T21:20:02.423Z,57.29
2023-03-15T21:22:29.243Z,63.44
2023-03-15T21:24:56.501Z,55.15
2023-03-15T21:27:23.431Z,53.26
2023-03-15T21:29:50.147Z,57.45
2023-03-15T21:32:16.901Z,58.51
2023-03-15T21:34:43.672Z,61.14
2023-03-15T21:37:11.894Z,57.34
2023-03-15T21:39:38.604Z,60.26
2023-03-15T21:42:05.497Z,57.88
2023-03-15T21:44:32.643Z,58.59
2023-03-15T21:46:59.570Z,64.12
2023-03-15T21:49:26.364Z,57.06
2023-03-15T21:51:53.148Z,53.33
2023-03-15T21:54:21.356Z,58.84
2023-03-15T21:56:48.117Z,59.39
2023-03-15T21:59:14.860Z,60.05
2023-03-15T22:01:41.577Z,59.40
2023-03-15T22:04:08.395Z,58.08
2023-03-15T22:06:35.189Z,56.28
2023-03-15T22:09:02.045Z,56.46
2023-03-15T22:11:30.154Z,54.43
2023-03-15T22:13:56.878Z,57.21
2023-03-15T22:16:23.714Z,59.21
2023-03-15T22:18:50.506Z,57.15
2023-03-15T22:21:17.277Z,56.65
2023-03-15T22:23:44.084Z,56.27
2023-03-15T22:26:11.114Z,58.75
2023-03-15T22:28:39.334Z,59.80
2023-03-15T22:31:09.558Z,60.44
2023-03-15T22:33:36.336Z,59.41
2023-03-15T22:36:03.461Z,60.12
2023-03-15T22:38:30.209Z,60.83
2023-03-15T22:41:00.988Z,60.26
2023-03-15T22:43:27.726Z,59.69
2023-03-15T22:45:55.962Z,58.96
2023-03-15T22:48:22.854Z,61.99
2023-03-15T22:50:56.212Z,63.13
2023-03-15T22:53:22.982Z,61.56
2023-03-15T22:55:49.731Z,59.29
2023-03-15T22:58:16.492Z,59.17
2023-03-15T23:00:43.243Z,58.98
2023-03-15T23:03:11.422Z,59.48
2023-03-15T23:05:38.542Z,59.59
2023-03-15T23:08:05.835Z,60.52
2023-03-15T23:10:32.779Z,59.80
2023-03-15T23:12:59.793Z,58.88
2023-03-15T23:15:26.568Z,59.29
2023-03-15T23:17:53.288Z,59.54
2023-03-15T23:20:22.595Z,57.11
2023-03-15T23:22:49.994Z,62.36
2023-03-15T23:25:18.882Z,60.84
2023-03-15T23:27:46.417Z,61.22
2023-03-15T23:30:14.789Z,59.82
2023-03-15T23:32:42.013Z,60.33
2023-03-15T23:35:11.706Z,60.57
2023-03-15T23:37:39.874Z,62.11
2023-03-15T23:40:08.122Z,59.98
2023-03-15T23:42:34.929Z,61.51
2023-03-15T23:45:01.653Z,60.26
2023-03-15T23:47:28.468Z,61.51
2023-03-15T23:49:55.191Z,61.79
2023-03-15T23:52:24.333Z,60.09
2023-03-15T23:54:53.477Z,61.25
2023-03-15T23:57:20.579Z,63.18
2023-03-15T23:59:47.786Z,63.07
